Time;durP1;ratioP1;P1;durP2;ratioP2;P2;SDS_P1;SDS_P2;PMS_P1;PMS_P2;Temp;Humidity;BMP_temperature;BMP_pressure;BME280_temperature;BME280_humidity;BME280_pressure;Samples;Min_cycle;Max_cycle;Signal;HPM_P1;HPM_P2
2023/10/29 00:01:57;0.00;0.00;0.62;0.00;0.00;0.62;5.90;5.00;;;23.60;30.00;;;;;;2256726;61;20816;-58
2023/10/29 00:04:42;0.00;0.00;0.62;0.00;0.00;0.62;5.20;4.60;;;23.60;30.00;;;;;;2256841;61;20390;-61
2023/10/29 00:07:27;0.00;0.00;0.62;0.00;0.00;0.62;5.20;4.70;;;23.60;30.70;;;;;;2256972;61;20370;-58
2023/10/29 00:10:11;0.00;0.00;0.62;0.00;0.00;0.62;5.90;4.97;;;23.60;30.00;;;;;;2256469;61;20366;-60
2023/10/29 00:12:56;0.00;0.00;0.62;0.00;0.00;0.62;6.57;4.60;;;23.60;30.00;;;;;;2256911;61;20366;-61
2023/10/29 00:15:40;0.00;0.00;0.62;0.00;0.00;0.62;5.53;4.70;;;23.50;30.00;;;;;;2256542;61;20441;-57
2023/10/29 00:18:26;0.00;0.00;0.62;0.00;0.00;0.62;6.13;5.53;;;23.50;30.00;;;;;;2256489;61;20373;-58
2023/10/29 00:21:11;0.00;0.00;0.62;0.00;0.00;0.62;5.70;4.60;;;23.50;30.00;;;;;;2256684;61;20443;-60
2023/10/29 00:23:56;0.00;0.00;0.62;0.00;0.00;0.62;6.57;5.13;;;23.50;30.00;;;;;;2256751;61;20390;-60
2023/10/29 00:26:41;0.00;0.00;0.62;0.00;0.00;0.62;5.80;5.13;;;23.50;30.00;;;;;;2256746;61;20776;-60
2023/10/29 00:29:25;0.00;0.00;0.62;0.00;0.00;0.62;5.93;5.00;;;23.50;30.00;;;;;;2256711;61;20797;-58
2023/10/29 00:32:10;0.00;0.00;0.62;0.00;0.00;0.62;5.23;4.73;;;23.50;30.00;;;;;;2256684;61;20781;-58
2023/10/29 00:34:57;0.00;0.00;0.62;0.00;0.00;0.62;5.87;4.80;;;23.50;30.00;;;;;;2256791;61;20401;-60
2023/10/29 00:37:42;0.00;0.00;0.62;0.00;0.00;0.62;5.70;4.57;;;23.50;30.00;;;;;;2256647;61;20382;-61
2023/10/29 00:40:30;0.00;0.00;0.62;0.00;0.00;0.62;5.47;4.80;;;23.50;30.00;;;;;;2253505;61;20417;-57
2023/10/29 00:43:15;0.00;0.00;0.62;0.00;0.00;0.62;5.23;4.70;;;23.50;30.00;;;;;;2256895;61;20394;-55
2023/10/29 00:46:00;0.00;0.00;0.62;0.00;0.00;0.62;7.30;5.63;;;23.50;30.00;;;;;;2256469;61;20445;-62
2023/10/29 00:48:46;0.00;0.00;0.62;0.00;0.00;0.62;5.37;4.87;;;23.50;30.00;;;;;;2256347;61;20378;-59
2023/10/29 00:51:32;0.00;0.00;0.62;0.00;0.00;0.62;5.20;4.00;;;23.50;30.00;;;;;;2256973;61;20369;-60
2023/10/29 00:54:17;0.00;0.00;0.62;0.00;0.00;0.62;5.50;4.67;;;23.50;30.00;;;;;;2256273;61;20386;-62
2023/10/29 00:57:02;0.00;0.00;0.62;0.00;0.00;0.62;5.37;4.60;;;23.50;30.00;;;;;;2256683;61;20361;-60
2023/10/29 00:59:47;0.00;0.00;0.62;0.00;0.00;0.62;5.37;4.03;;;23.50;30.00;;;;;;2256422;61;20366;-61
2023/10/29 01:02:33;0.00;0.00;0.62;0.00;0.00;0.62;5.60;4.60;;;23.50;30.00;;;;;;2256636;61;20397;-60
2023/10/29 01:05:18;0.00;0.00;0.62;0.00;0.00;0.62;5.73;4.33;;;23.50;30.00;;;;;;2256450;61;20528;-57
2023/10/29 01:08:07;0.00;0.00;0.62;0.00;0.00;0.62;4.90;4.23;;;23.50;30.00;;;;;;2256329;61;20945;-61
2023/10/29 01:10:52;0.00;0.00;0.62;0.00;0.00;0.62;5.70;4.40;;;23.50;30.00;;;;;;2256740;61;20374;-59
2023/10/29 01:13:37;0.00;0.00;0.62;0.00;0.00;0.62;4.37;3.83;;;23.50;30.00;;;;;;2256877;61;20421;-57
2023/10/29 01:16:22;0.00;0.00;0.62;0.00;0.00;0.62;4.60;3.70;;;23.50;30.00;;;;;;2253366;61;20377;-58
2023/10/29 01:19:07;0.00;0.00;0.62;0.00;0.00;0.62;4.67;3.90;;;23.50;30.00;;;;;;2256317;61;20362;-57
2023/10/29 01:21:52;0.00;0.00;0.62;0.00;0.00;0.62;4.50;4.07;;;23.50;30.00;;;;;;2256741;61;20941;-56
2023/10/29 01:24:39;0.00;0.00;0.62;0.00;0.00;0.62;5.40;4.63;;;23.50;30.00;;;;;;2253262;61;20903;-59
2023/10/29 01:27:24;0.00;0.00;0.62;0.00;0.00;0.62;5.07;3.87;;;23.50;30.00;;;;;;2256678;61;20369;-59
2023/10/29 01:30:09;0.00;0.00;0.62;0.00;0.00;0.62;5.30;4.07;;;23.50;30.00;;;;;;2256065;61;20873;-56
2023/10/29 01:32:54;0.00;0.00;0.62;0.00;0.00;0.62;4.87;4.00;;;23.50;30.00;;;;;;2253236;61;20365;-59
2023/10/29 01:35:39;0.00;0.00;0.62;0.00;0.00;0.62;5.30;4.00;;;23.50;30.60;;;;;;2256698;61;20370;-59
2023/10/29 01:38:23;0.00;0.00;0.62;0.00;0.00;0.62;4.80;3.70;;;23.50;30.00;;;;;;2256064;61;20917;-60
2023/10/29 01:41:09;0.00;0.00;0.62;0.00;0.00;0.62;4.33;3.50;;;23.50;30.00;;;;;;2253082;61;20381;-62
2023/10/29 01:43:54;0.00;0.00;0.62;0.00;0.00;0.62;3.70;3.13;;;23.50;30.00;;;;;;2253393;61;20863;-58
2023/10/29 01:46:38;0.00;0.00;0.62;0.00;0.00;0.62;3.97;3.53;;;23.50;30.00;;;;;;2256547;61;20838;-60
2023/10/29 01:49:23;0.00;0.00;0.62;0.00;0.00;0.62;4.97;3.23;;;23.50;30.00;;;;;;2510349;53;20366;-59
2023/10/29 01:52:08;0.00;0.00;0.62;0.00;0.00;0.62;4.27;3.77;;;23.50;30.00;;;;;;2252532;61;20462;-56
2023/10/29 01:54:52;0.00;0.00;0.62;0.00;0.00;0.62;3.63;3.03;;;23.50;30.00;;;;;;2248938;61;20438;-60
2023/10/29 01:57:39;0.00;0.00;0.62;0.00;0.00;0.62;4.33;3.60;;;23.50;30.00;;;;;;2252523;61;20371;-62
2023/10/29 02:00:23;0.00;0.00;0.62;0.00;0.00;0.62;3.80;3.03;;;23.50;30.00;;;;;;2254795;61;20417;-61
2023/10/29 02:03:08;0.00;0.00;0.62;0.00;0.00;0.62;4.10;3.20;;;23.50;30.00;;;;;;2252355;61;20469;-59
2023/10/29 02:05:52;0.00;0.00;0.62;0.00;0.00;0.62;4.00;3.17;;;23.50;30.00;;;;;;2249319;61;20402;-56
2023/10/29 02:08:37;0.00;0.00;0.62;0.00;0.00;0.62;4.13;3.30;;;23.50;30.00;;;;;;2252291;61;20814;-60
2023/10/29 02:11:21;0.00;0.00;0.62;0.00;0.00;0.62;4.03;3.03;;;23.40;30.00;;;;;;2249375;61;20369;-57
2023/10/29 02:14:07;0.00;0.00;0.62;0.00;0.00;0.62;3.63;2.90;;;23.50;30.00;;;;;;2249479;61;20418;-55
2023/10/29 02:16:52;0.00;0.00;0.62;0.00;0.00;0.62;3.80;2.97;;;23.40;30.00;;;;;;2249146;61;20374;-56
2023/10/29 02:19:36;0.00;0.00;0.62;0.00;0.00;0.62;3.37;2.80;;;23.40;30.00;;;;;;2251933;61;20370;-59
2023/10/29 02:22:22;0.00;0.00;0.62;0.00;0.00;0.62;3.20;2.80;;;23.50;30.00;;;;;;2252693;61;20459;-61
2023/10/29 02:25:08;0.00;0.00;0.62;0.00;0.00;0.62;3.10;2.27;;;23.40;30.00;;;;;;2252673;61;20823;-58
2023/10/29 02:27:52;0.00;0.00;0.62;0.00;0.00;0.62;3.47;2.63;;;23.40;30.00;;;;;;2252954;61;20394;-61
2023/10/29 02:30:37;0.00;0.00;0.62;0.00;0.00;0.62;2.93;2.63;;;23.40;30.00;;;;;;2249223;61;21015;-57
2023/10/29 02:33:21;0.00;0.00;0.62;0.00;0.00;0.62;3.40;2.53;;;23.40;30.00;;;;;;2253143;61;20449;-60
2023/10/29 02:36:08;0.00;0.00;0.62;0.00;0.00;0.62;3.00;2.53;;;23.40;30.00;;;;;;2255623;61;20413;-57
2023/10/29 02:38:53;0.00;0.00;0.62;0.00;0.00;0.62;3.73;3.13;;;23.40;30.00;;;;;;2252415;61;20502;-60
2023/10/29 02:41:38;0.00;0.00;0.62;0.00;0.00;0.62;2.80;2.17;;;23.40;30.00;;;;;;2253160;61;20386;-59
2023/10/29 02:44:23;0.00;0.00;0.62;0.00;0.00;0.62;3.27;2.43;;;23.40;30.00;;;;;;2256879;61;20897;-58
2023/10/29 02:47:08;0.00;0.00;0.62;0.00;0.00;0.62;3.40;2.60;;;23.40;30.00;;;;;;2257319;61;20434;-57
2023/10/29 02:49:52;0.00;0.00;0.62;0.00;0.00;0.62;3.60;2.90;;;23.40;30.00;;;;;;2256421;61;20362;-57
2023/10/29 02:52:39;0.00;0.00;0.62;0.00;0.00;0.62;3.30;2.67;;;23.40;30.00;;;;;;2257305;61;20765;-56
2023/10/29 02:55:25;0.00;0.00;0.62;0.00;0.00;0.62;3.73;2.43;;;23.40;30.00;;;;;;2256733;61;20381;-58
2023/10/29 02:58:10;0.00;0.00;0.62;0.00;0.00;0.62;3.60;3.10;;;23.40;30.00;;;;;;2256834;61;20370;-54
2023/10/29 03:01:04;0.00;0.00;0.62;0.00;0.00;0.62;3.63;2.80;;;23.40;30.00;;;;;;2256550;61;20860;-59
2023/10/29 03:03:48;0.00;0.00;0.62;0.00;0.00;0.62;3.60;2.63;;;23.40;30.00;;;;;;2257182;61;20517;-61
2023/10/29 03:06:35;0.00;0.00;0.62;0.00;0.00;0.62;4.03;2.40;;;23.40;30.00;;;;;;2257043;61;20772;-59
2023/10/29 03:09:19;0.00;0.00;0.62;0.00;0.00;0.62;2.80;2.20;;;23.40;30.00;;;;;;2256284;61;20365;-60
2023/10/29 03:12:07;0.00;0.00;0.62;0.00;0.00;0.62;3.13;2.50;;;23.40;30.00;;;;;;2256970;61;20358;-59
2023/10/29 03:14:52;0.00;0.00;0.62;0.00;0.00;0.62;2.90;2.30;;;23.40;30.00;;;;;;2257012;61;20393;-60
2023/10/29 03:17:36;0.00;0.00;0.62;0.00;0.00;0.62;3.03;2.37;;;23.40;30.00;;;;;;2257279;61;20381;-57
2023/10/29 03:20:21;0.00;0.00;0.62;0.00;0.00;0.62;3.27;2.37;;;23.40;30.00;;;;;;2256615;61;20377;-60
2023/10/29 03:23:06;0.00;0.00;0.62;0.00;0.00;0.62;2.37;1.97;;;23.40;30.00;;;;;;2256707;61;20777;-60
2023/10/29 03:25:51;0.00;0.00;0.62;0.00;0.00;0.62;3.80;2.43;;;23.40;30.00;;;;;;2256545;61;20409;-59
2023/10/29 03:28:39;0.00;0.00;0.62;0.00;0.00;0.62;2.93;1.97;;;23.40;30.00;;;;;;2256725;61;20361;-58
2023/10/29 03:31:24;0.00;0.00;0.62;0.00;0.00;0.62;3.10;2.20;;;23.40;30.00;;;;;;2256542;61;20402;-58
2023/10/29 03:34:11;0.00;0.00;0.62;0.00;0.00;0.62;2.80;2.27;;;23.40;30.00;;;;;;2256857;61;20425;-60
2023/10/29 03:36:55;0.00;0.00;0.62;0.00;0.00;0.62;2.67;1.87;;;23.40;30.00;;;;;;2257113;61;20448;-59
2023/10/29 03:39:40;0.00;0.00;0.62;0.00;0.00;0.62;2.80;2.10;;;23.40;30.00;;;;;;2256409;61;20397;-59
2023/10/29 03:42:25;0.00;0.00;0.62;0.00;0.00;0.62;2.80;2.20;;;23.40;30.00;;;;;;2257164;61;20366;-58
2023/10/29 03:45:12;0.00;0.00;0.62;0.00;0.00;0.62;3.37;2.30;;;23.40;30.00;;;;;;2256458;61;20482;-57
2023/10/29 03:47:57;0.00;0.00;0.62;0.00;0.00;0.62;2.93;2.10;;;23.40;30.00;;;;;;2256644;61;20518;-60
2023/10/29 03:50:42;0.00;0.00;0.62;0.00;0.00;0.62;2.70;2.10;;;23.40;30.00;;;;;;2256577;61;20369;-61
2023/10/29 03:53:27;0.00;0.00;0.62;0.00;0.00;0.62;2.63;1.93;;;23.40;30.00;;;;;;2256551;61;20436;-61
2023/10/29 03:56:11;0.00;0.00;0.62;0.00;0.00;0.62;2.57;1.80;;;23.40;30.00;;;;;;2256751;61;20362;-57
2023/10/29 03:58:56;0.00;0.00;0.62;0.00;0.00;0.62;3.80;2.47;;;23.40;30.00;;;;;;2256570;61;20364;-62
2023/10/29 04:01:44;0.00;0.00;0.62;0.00;0.00;0.62;2.60;2.07;;;23.40;30.00;;;;;;2256732;61;20941;-59
2023/10/29 04:04:29;0.00;0.00;0.62;0.00;0.00;0.62;3.03;2.07;;;23.40;30.70;;;;;;2256906;61;20939;-60
2023/10/29 04:07:15;0.00;0.00;0.62;0.00;0.00;0.62;2.67;1.67;;;23.40;30.00;;;;;;2253395;61;20458;-60
2023/10/29 04:10:00;0.00;0.00;0.62;0.00;0.00;0.62;3.30;2.50;;;23.40;30.00;;;;;;2256334;61;21002;-61
2023/10/29 04:12:45;0.00;0.00;0.62;0.00;0.00;0.62;2.53;1.70;;;23.40;30.00;;;;;;2256610;61;20891;-59
2023/10/29 04:15:29;0.00;0.00;0.62;0.00;0.00;0.62;3.00;2.03;;;23.40;30.00;;;;;;2256759;61;20886;-58
2023/10/29 04:18:15;0.00;0.00;0.62;0.00;0.00;0.62;2.30;1.60;;;23.40;30.00;;;;;;2256540;61;20366;-56
2023/10/29 04:21:02;0.00;0.00;0.62;0.00;0.00;0.62;2.80;1.60;;;23.30;30.00;;;;;;2257133;61;20369;-59
2023/10/29 04:23:47;0.00;0.00;0.62;0.00;0.00;0.62;2.70;2.10;;;23.40;30.00;;;;;;2256943;61;20445;-56
2023/10/29 04:26:31;0.00;0.00;0.62;0.00;0.00;0.62;2.50;1.73;;;23.40;30.00;;;;;;2253766;61;20366;-59
2023/10/29 04:29:16;0.00;0.00;0.62;0.00;0.00;0.62;2.77;1.87;;;23.40;30.10;;;;;;2256324;61;20369;-58
2023/10/29 04:32:01;0.00;0.00;0.62;0.00;0.00;0.62;2.50;1.77;;;23.30;30.60;;;;;;2256574;61;20420;-58
2023/10/29 04:34:46;0.00;0.00;0.62;0.00;0.00;0.62;2.70;1.70;;;23.40;30.00;;;;;;2256733;61;20914;-59
2023/10/29 04:37:31;0.00;0.00;0.62;0.00;0.00;0.62;2.30;1.60;;;23.40;30.10;;;;;;2256387;61;20374;-55
2023/10/29 04:40:16;0.00;0.00;0.62;0.00;0.00;0.62;2.43;2.07;;;23.30;30.00;;;;;;2256204;61;20814;-55
2023/10/29 04:43:00;0.00;0.00;0.62;0.00;0.00;0.62;2.80;1.70;;;23.40;30.10;;;;;;2255607;61;20449;-60
2023/10/29 04:45:45;0.00;0.00;0.62;0.00;0.00;0.62;2.17;1.50;;;23.30;30.00;;;;;;2256276;61;20390;-57
2023/10/29 04:48:29;0.00;0.00;0.62;0.00;0.00;0.62;2.70;1.57;;;23.30;30.00;;;;;;2253019;61;20369;-60
2023/10/29 04:51:15;0.00;0.00;0.62;0.00;0.00;0.62;2.30;1.67;;;23.30;30.00;;;;;;2256439;61;20366;-58
2023/10/29 04:54:00;0.00;0.00;0.62;0.00;0.00;0.62;2.10;1.60;;;23.30;30.00;;;;;;2256471;61;20385;-60
2023/10/29 04:56:44;0.00;0.00;0.62;0.00;0.00;0.62;2.50;1.70;;;23.30;30.00;;;;;;2256708;61;20414;-60
2023/10/29 04:59:29;0.00;0.00;0.62;0.00;0.00;0.62;2.20;1.60;;;23.30;30.00;;;;;;2256207;61;20894;-59
2023/10/29 05:02:13;0.00;0.00;0.62;0.00;0.00;0.62;2.30;1.87;;;23.30;30.00;;;;;;2256673;61;20365;-60
2023/10/29 05:04:58;0.00;0.00;0.62;0.00;0.00;0.62;1.93;1.50;;;23.30;30.00;;;;;;2256719;61;20930;-61
2023/10/29 05:07:45;0.00;0.00;0.62;0.00;0.00;0.62;2.53;1.40;;;23.30;30.00;;;;;;2256584;61;21051;-59
2023/10/29 05:10:29;0.00;0.00;0.62;0.00;0.00;0.62;2.40;1.63;;;23.30;30.00;;;;;;2256597;61;20412;-59
2023/10/29 05:13:14;0.00;0.00;0.62;0.00;0.00;0.62;2.00;1.47;;;23.40;30.10;;;;;;2253375;61;20421;-58
2023/10/29 05:15:58;0.00;0.00;0.62;0.00;0.00;0.62;2.07;1.53;;;23.30;30.00;;;;;;2256674;61;20361;-61
2023/10/29 05:18:43;0.00;0.00;0.62;0.00;0.00;0.62;2.30;1.90;;;23.30;30.00;;;;;;2256051;61;20411;-60
2023/10/29 05:21:28;0.00;0.00;0.62;0.00;0.00;0.62;2.27;1.50;;;23.30;30.70;;;;;;2256569;61;20412;-57
2023/10/29 05:24:14;0.00;0.00;0.62;0.00;0.00;0.62;2.27;1.67;;;23.30;30.00;;;;;;2256593;61;20909;-60
2023/10/29 05:26:59;0.00;0.00;0.62;0.00;0.00;0.62;2.30;1.40;;;23.30;30.00;;;;;;2256619;61;20397;-57
2023/10/29 05:29:43;0.00;0.00;0.62;0.00;0.00;0.62;2.17;1.43;;;23.30;30.00;;;;;;2255993;61;20446;-58
2023/10/29 05:32:28;0.00;0.00;0.62;0.00;0.00;0.62;2.30;1.60;;;23.30;30.00;;;;;;2256833;61;20473;-62
2023/10/29 05:35:14;0.00;0.00;0.62;0.00;0.00;0.62;1.83;1.30;;;23.30;30.00;;;;;;2256495;61;20347;-57
2023/10/29 05:37:58;0.00;0.00;0.62;0.00;0.00;0.62;1.80;1.40;;;23.30;30.00;;;;;;2256134;61;20462;-60
2023/10/29 05:40:44;0.00;0.00;0.62;0.00;0.00;0.62;2.30;1.50;;;23.30;30.00;;;;;;2256390;61;20796;-60
2023/10/29 05:43:29;0.00;0.00;0.62;0.00;0.00;0.62;2.13;1.40;;;23.30;30.00;;;;;;2253167;61;20390;-58
2023/10/29 05:46:14;0.00;0.00;0.62;0.00;0.00;0.62;1.97;1.43;;;23.30;30.10;;;;;;2256474;61;20392;-62
2023/10/29 05:48:59;0.00;0.00;0.62;0.00;0.00;0.62;2.10;1.40;;;23.30;30.00;;;;;;2256362;61;20442;-56
2023/10/29 05:51:44;0.00;0.00;0.62;0.00;0.00;0.62;1.67;1.13;;;23.30;30.00;;;;;;2256690;61;20421;-56
2023/10/29 05:54:28;0.00;0.00;0.62;0.00;0.00;0.62;2.37;1.30;;;23.30;30.30;;;;;;2256700;61;20461;-56
2023/10/29 05:57:16;0.00;0.00;0.62;0.00;0.00;0.62;2.30;1.30;;;23.30;30.10;;;;;;2256515;61;20365;-62
2023/10/29 06:00:01;0.00;0.00;0.62;0.00;0.00;0.62;1.70;1.40;;;23.30;30.10;;;;;;2256740;61;20369;-58
2023/10/29 06:02:45;0.00;0.00;0.62;0.00;0.00;0.62;2.33;1.50;;;23.30;30.10;;;;;;2257525;61;20405;-57
2023/10/29 06:05:30;0.00;0.00;0.62;0.00;0.00;0.62;2.13;1.30;;;23.30;30.10;;;;;;2257138;61;20417;-59
2023/10/29 06:08:14;0.00;0.00;0.62;0.00;0.00;0.62;1.80;1.20;;;23.30;30.10;;;;;;2253719;61;20362;-56
2023/10/29 06:10:59;0.00;0.00;0.62;0.00;0.00;0.62;1.90;1.27;;;23.30;30.10;;;;;;2257591;61;20365;-59
2023/10/29 06:13:46;0.00;0.00;0.62;0.00;0.00;0.62;2.40;1.40;;;23.30;30.10;;;;;;2257050;61;20405;-59
2023/10/29 06:16:30;0.00;0.00;0.62;0.00;0.00;0.62;1.70;1.13;;;23.30;30.10;;;;;;2256912;61;20370;-57
2023/10/29 06:19:14;0.00;0.00;0.62;0.00;0.00;0.62;1.70;1.03;;;23.30;30.10;;;;;;2256995;61;20413;-55
2023/10/29 06:21:59;0.00;0.00;0.62;0.00;0.00;0.62;1.77;1.07;;;23.30;30.10;;;;;;2253996;61;20365;-58
2023/10/29 06:24:43;0.00;0.00;0.62;0.00;0.00;0.62;2.40;1.30;;;23.30;30.10;;;;;;2257169;61;20476;-62
2023/10/29 06:27:28;0.00;0.00;0.62;0.00;0.00;0.62;1.93;1.30;;;23.30;30.10;;;;;;2257354;61;20452;-59
2023/10/29 06:30:14;0.00;0.00;0.62;0.00;0.00;0.62;1.70;1.10;;;23.30;30.10;;;;;;2257119;61;20404;-57
2023/10/29 06:33:00;0.00;0.00;0.62;0.00;0.00;0.62;2.30;1.57;;;23.30;30.10;;;;;;2256688;61;20509;-52
2023/10/29 06:35:45;0.00;0.00;0.62;0.00;0.00;0.62;2.07;1.20;;;23.30;30.10;;;;;;2257252;61;20431;-57
2023/10/29 06:38:30;0.00;0.00;0.62;0.00;0.00;0.62;1.97;1.33;;;23.30;30.10;;;;;;2257180;61;20369;-56
2023/10/29 06:41:14;0.00;0.00;0.62;0.00;0.00;0.62;1.77;1.10;;;23.30;30.10;;;;;;2257304;61;20362;-58
2023/10/29 06:43:59;0.00;0.00;0.62;0.00;0.00;0.62;2.23;1.50;;;23.30;30.10;;;;;;2257091;61;20803;-58
2023/10/29 06:46:44;0.00;0.00;0.62;0.00;0.00;0.62;2.17;1.40;;;23.30;30.10;;;;;;2257140;61;20362;-59
2023/10/29 06:49:29;0.00;0.00;0.62;0.00;0.00;0.62;1.90;1.30;;;23.30;30.20;;;;;;2256721;61;20922;-56
2023/10/29 06:52:14;0.00;0.00;0.62;0.00;0.00;0.62;1.80;1.30;;;23.30;30.20;;;;;;2255761;61;20941;-61
2023/10/29 06:54:58;0.00;0.00;0.62;0.00;0.00;0.62;2.00;1.50;;;23.30;30.10;;;;;;2668240;45;20469;-58
2023/10/29 06:57:43;0.00;0.00;0.62;0.00;0.00;0.62;2.00;1.20;;;23.30;30.20;;;;;;2274345;58;20909;-55
2023/10/29 07:00:29;0.00;0.00;0.62;0.00;0.00;0.62;2.40;1.20;;;23.30;30.10;;;;;;2257045;61;20366;-57
2023/10/29 07:03:15;0.00;0.00;0.62;0.00;0.00;0.62;1.97;1.43;;;23.30;30.20;;;;;;2256815;61;20553;-60
2023/10/29 07:06:05;0.00;0.00;0.62;0.00;0.00;0.62;1.90;1.30;;;23.30;30.20;;;;;;2253629;61;20461;-60
2023/10/29 07:08:50;0.00;0.00;0.62;0.00;0.00;0.62;1.90;1.30;;;23.30;30.20;;;;;;2256579;61;20917;-59
2023/10/29 07:11:36;0.00;0.00;0.62;0.00;0.00;0.62;1.67;1.10;;;23.30;30.20;;;;;;2253924;61;20366;-59
2023/10/29 07:14:20;0.00;0.00;0.62;0.00;0.00;0.62;1.70;1.20;;;23.30;30.20;;;;;;2256917;61;20393;-59
2023/10/29 07:17:05;0.00;0.00;0.62;0.00;0.00;0.62;2.17;1.50;;;23.30;30.20;;;;;;2256944;61;20366;-61
2023/10/29 07:19:52;0.00;0.00;0.62;0.00;0.00;0.62;2.40;1.63;;;23.30;30.20;;;;;;2256492;61;20370;-58
2023/10/29 07:22:37;0.00;0.00;0.62;0.00;0.00;0.62;1.83;1.20;;;23.30;30.20;;;;;;2257327;61;20519;-57
2023/10/29 07:25:22;0.00;0.00;0.62;0.00;0.00;0.62;1.80;1.20;;;23.30;30.20;;;;;;2256839;61;20421;-56
2023/10/29 07:28:07;0.00;0.00;0.62;0.00;0.00;0.62;2.40;1.10;;;23.30;30.20;;;;;;2256285;61;20444;-61
2023/10/29 07:30:52;0.00;0.00;0.62;0.00;0.00;0.62;2.23;1.40;;;23.30;30.20;;;;;;2256796;61;20416;-58
2023/10/29 07:33:37;0.00;0.00;0.62;0.00;0.00;0.62;1.77;1.20;;;23.30;30.20;;;;;;2256986;61;20429;-59
2023/10/29 07:36:23;0.00;0.00;0.62;0.00;0.00;0.62;1.63;0.97;;;23.30;30.20;;;;;;2256513;61;20412;-60
2023/10/29 07:39:08;0.00;0.00;0.62;0.00;0.00;0.62;1.80;1.07;;;23.30;30.20;;;;;;2256397;61;20963;-60
2023/10/29 07:41:52;0.00;0.00;0.62;0.00;0.00;0.62;2.53;1.23;;;23.30;30.20;;;;;;2256624;61;20910;-58
2023/10/29 07:44:37;0.00;0.00;0.62;0.00;0.00;0.62;2.30;1.30;;;23.30;30.20;;;;;;2256878;61;20394;-59
2023/10/29 07:47:21;0.00;0.00;0.62;0.00;0.00;0.62;2.27;1.37;;;23.30;30.20;;;;;;2256577;61;20374;-60
2023/10/29 07:50:10;0.00;0.00;0.62;0.00;0.00;0.62;1.70;1.10;;;23.30;30.20;;;;;;2256491;61;20420;-58
2023/10/29 07:52:56;0.00;0.00;0.62;0.00;0.00;0.62;1.80;1.20;;;23.30;30.30;;;;;;2256818;61;20409;-56
2023/10/29 07:55:40;0.00;0.00;0.62;0.00;0.00;0.62;2.23;1.23;;;23.30;30.20;;;;;;2256950;61;20446;-62
2023/10/29 07:58:25;0.00;0.00;0.62;0.00;0.00;0.62;1.77;1.23;;;23.30;30.20;;;;;;2256457;61;20416;-56
2023/10/29 08:01:11;0.00;0.00;0.62;0.00;0.00;0.62;2.20;1.40;;;23.30;30.20;;;;;;2257179;61;20389;-60
2023/10/29 08:03:57;0.00;0.00;0.62;0.00;0.00;0.62;2.80;1.70;;;23.30;30.20;;;;;;2256556;61;20384;-62
2023/10/29 08:06:41;0.00;0.00;0.62;0.00;0.00;0.62;2.20;1.50;;;23.30;30.30;;;;;;2257120;61;20377;-59
2023/10/29 08:09:28;0.00;0.00;0.62;0.00;0.00;0.62;2.93;1.37;;;23.30;30.30;;;;;;2256373;61;20454;-59
2023/10/29 08:12:13;0.00;0.00;0.62;0.00;0.00;0.62;2.47;1.47;;;23.30;30.30;;;;;;2257001;61;20906;-60
2023/10/29 08:14:58;0.00;0.00;0.62;0.00;0.00;0.62;2.77;1.67;;;23.30;30.30;;;;;;2256818;61;20398;-59
2023/10/29 08:17:43;0.00;0.00;0.62;0.00;0.00;0.62;1.90;1.30;;;23.30;30.30;;;;;;2256722;61;20369;-59
2023/10/29 08:20:29;0.00;0.00;0.62;0.00;0.00;0.62;2.27;1.60;;;23.30;30.30;;;;;;2256502;61;20876;-55
2023/10/29 08:23:13;0.00;0.00;0.62;0.00;0.00;0.62;1.90;1.30;;;23.30;30.30;;;;;;2256704;61;20669;-60
2023/10/29 08:25:59;0.00;0.00;0.62;0.00;0.00;0.62;2.30;1.50;;;23.30;30.30;;;;;;2256479;61;20868;-59
2023/10/29 08:28:44;0.00;0.00;0.62;0.00;0.00;0.62;2.50;1.50;;;23.30;30.30;;;;;;2256581;61;20366;-58
2023/10/29 08:31:29;0.00;0.00;0.62;0.00;0.00;0.62;2.57;1.67;;;23.30;30.30;;;;;;2256582;61;20848;-57
2023/10/29 08:34:14;0.00;0.00;0.62;0.00;0.00;0.62;1.93;1.47;;;23.30;30.30;;;;;;2256500;61;20414;-59
2023/10/29 08:36:58;0.00;0.00;0.62;0.00;0.00;0.62;2.37;1.67;;;23.30;30.30;;;;;;2256539;61;20373;-61
2023/10/29 08:39:43;0.00;0.00;0.62;0.00;0.00;0.62;2.33;1.50;;;23.30;30.30;;;;;;2256343;61;20366;-59
2023/10/29 08:42:30;0.00;0.00;0.62;0.00;0.00;0.62;2.40;1.70;;;23.30;30.30;;;;;;2255798;61;20910;-60
2023/10/29 08:45:14;0.00;0.00;0.62;0.00;0.00;0.62;3.00;2.00;;;23.30;30.30;;;;;;2256794;61;20953;-56
2023/10/29 08:47:59;0.00;0.00;0.62;0.00;0.00;0.62;3.07;2.30;;;23.30;30.30;;;;;;2256161;61;20416;-58
2023/10/29 08:50:43;0.00;0.00;0.62;0.00;0.00;0.62;3.03;2.10;;;23.30;30.40;;;;;;2256582;61;20408;-61
2023/10/29 08:53:28;0.00;0.00;0.62;0.00;0.00;0.62;2.93;2.30;;;23.30;30.40;;;;;;2256475;61;20990;-61
2023/10/29 08:56:14;0.00;0.00;0.62;0.00;0.00;0.62;2.57;1.93;;;23.30;30.40;;;;;;2256544;61;20446;-61
2023/10/29 08:59:01;0.00;0.00;0.62;0.00;0.00;0.62;3.10;1.93;;;23.30;30.40;;;;;;2256409;61;20385;-60
2023/10/29 09:01:46;0.00;0.00;0.62;0.00;0.00;0.62;2.70;2.07;;;23.30;30.40;;;;;;2256498;61;20405;-57
2023/10/29 09:04:32;0.00;0.00;0.62;0.00;0.00;0.62;2.80;2.23;;;23.30;30.40;;;;;;2256575;61;20386;-60
2023/10/29 09:07:17;0.00;0.00;0.62;0.00;0.00;0.62;2.77;1.97;;;23.30;30.40;;;;;;2256765;61;20366;-59
2023/10/29 09:10:02;0.00;0.00;0.62;0.00;0.00;0.62;2.87;1.80;;;23.30;30.40;;;;;;2256230;61;20887;-58
2023/10/29 09:12:46;0.00;0.00;0.62;0.00;0.00;0.62;3.17;2.40;;;23.30;30.40;;;;;;2256270;61;20452;-58
2023/10/29 09:15:32;0.00;0.00;0.62;0.00;0.00;0.62;3.50;2.00;;;23.40;30.50;;;;;;2256866;61;20851;-58
2023/10/29 09:18:17;0.00;0.00;0.62;0.00;0.00;0.62;2.57;1.93;;;23.40;30.60;;;;;;2256455;61;20366;-57
2023/10/29 09:21:02;0.00;0.00;0.62;0.00;0.00;0.62;2.63;1.80;;;23.40;30.60;;;;;;2256720;61;20393;-60
2023/10/29 09:23:47;0.00;0.00;0.62;0.00;0.00;0.62;2.90;2.23;;;23.40;30.60;;;;;;2256548;61;20440;-57
2023/10/29 09:26:32;0.00;0.00;0.62;0.00;0.00;0.62;2.90;2.20;;;23.40;30.60;;;;;;2256581;61;21204;-54
2023/10/29 09:29:16;0.00;0.00;0.62;0.00;0.00;0.62;2.67;2.20;;;23.40;30.60;;;;;;2256286;61;20369;-61
2023/10/29 09:32:04;0.00;0.00;0.62;0.00;0.00;0.62;3.10;2.23;;;23.40;30.60;;;;;;2256335;61;20362;-60
2023/10/29 09:34:50;0.00;0.00;0.62;0.00;0.00;0.62;2.63;2.30;;;23.40;30.70;;;;;;2257280;61;20843;-60
2023/10/29 09:37:34;0.00;0.00;0.62;0.00;0.00;0.62;3.17;2.20;;;23.40;30.70;;;;;;2257424;61;20886;-58
2023/10/29 09:40:19;0.00;0.00;0.62;0.00;0.00;0.62;2.90;2.07;;;23.40;30.70;;;;;;2257186;61;20377;-59
2023/10/29 09:43:08;0.00;0.00;0.62;0.00;0.00;0.62;3.10;2.40;;;23.50;30.80;;;;;;2257214;61;20411;-56
2023/10/29 09:45:55;0.00;0.00;0.62;0.00;0.00;0.62;2.63;2.10;;;23.40;30.70;;;;;;2257161;61;20394;-61
2023/10/29 09:48:44;0.00;0.00;0.62;0.00;0.00;0.62;2.43;1.87;;;23.50;30.80;;;;;;2256999;61;20681;-58
2023/10/29 09:51:29;0.00;0.00;0.62;0.00;0.00;0.62;2.83;2.30;;;23.50;30.70;;;;;;2257565;61;20348;-53
2023/10/29 09:54:14;0.00;0.00;0.62;0.00;0.00;0.62;2.87;2.00;;;23.50;30.80;;;;;;2257597;61;20385;-57
2023/10/29 09:57:00;0.00;0.00;0.62;0.00;0.00;0.62;2.50;2.13;;;23.50;30.70;;;;;;2257618;61;20752;-58
2023/10/29 09:59:44;0.00;0.00;0.62;0.00;0.00;0.62;3.00;2.13;;;23.50;30.70;;;;;;2256915;61;20365;-58
2023/10/29 10:02:29;0.00;0.00;0.62;0.00;0.00;0.62;2.90;2.20;;;23.50;30.70;;;;;;2257145;61;20365;-58
2023/10/29 10:05:18;0.00;0.00;0.62;0.00;0.00;0.62;3.30;2.70;;;23.50;30.70;;;;;;2257363;61;20489;-59
2023/10/29 10:08:02;0.00;0.00;0.62;0.00;0.00;0.62;3.60;2.07;;;23.50;30.70;;;;;;2257057;61;20370;-58
2023/10/29 10:10:48;0.00;0.00;0.62;0.00;0.00;0.62;3.27;2.70;;;23.50;30.70;;;;;;2257280;61;20902;-57
2023/10/29 10:13:37;0.00;0.00;0.62;0.00;0.00;0.62;2.73;2.20;;;23.60;30.80;;;;;;2257506;61;20390;-55
2023/10/29 10:16:22;0.00;0.00;0.62;0.00;0.00;0.62;3.30;2.20;;;23.60;30.80;;;;;;2257225;61;20389;-56
2023/10/29 10:19:07;0.00;0.00;0.62;0.00;0.00;0.62;3.10;2.23;;;23.60;30.80;;;;;;2257011;61;20935;-59
2023/10/29 10:21:53;0.00;0.00;0.62;0.00;0.00;0.62;2.97;1.90;;;23.60;30.80;;;;;;2257285;61;20365;-59
2023/10/29 10:24:39;0.00;0.00;0.62;0.00;0.00;0.62;4.23;2.60;;;23.60;30.80;;;;;;2257287;61;20628;-56
2023/10/29 10:27:24;0.00;0.00;0.62;0.00;0.00;0.62;2.90;2.10;;;23.60;30.70;;;;;;2257215;61;20365;-59
2023/10/29 10:30:24;0.00;0.00;0.62;0.00;0.00;0.62;3.27;2.30;;;23.60;30.80;;;;;;2256075;61;20573;-60
2023/10/29 10:33:12;0.00;0.00;0.62;0.00;0.00;0.62;3.30;2.73;;;23.60;30.80;;;;;;2256653;61;20389;-60
2023/10/29 10:35:56;0.00;0.00;0.62;0.00;0.00;0.62;3.60;2.40;;;23.60;30.80;;;;;;2256784;61;20365;-59
2023/10/29 10:38:55;0.00;0.00;0.62;0.00;0.00;0.62;3.33;2.50;;;23.60;30.80;;;;;;2256641;61;20365;-61
2023/10/29 10:41:42;0.00;0.00;0.62;0.00;0.00;0.62;3.23;2.93;;;23.60;30.70;;;;;;2253828;61;20501;-60
2023/10/29 10:44:30;0.00;0.00;0.62;0.00;0.00;0.62;3.53;2.27;;;23.60;30.70;;;;;;2256760;61;20398;-53
2023/10/29 10:47:16;0.00;0.00;0.62;0.00;0.00;0.62;3.50;2.77;;;23.60;30.80;;;;;;2257004;61;20362;-57
2023/10/29 10:50:02;0.00;0.00;0.62;0.00;0.00;0.62;3.20;2.50;;;23.60;30.80;;;;;;2256783;61;20365;-61
2023/10/29 10:52:49;0.00;0.00;0.62;0.00;0.00;0.62;4.43;3.07;;;23.60;30.70;;;;;;2256963;61;20381;-58